createdAt,value
2023-10-06T04:53:19.031Z,10.48
2023-10-06T04:53:51.616Z,10.48
2023-10-06T04:54:24.476Z,10.48
2023-10-06T04:54:57.089Z,10.48
2023-10-06T04:55:32.749Z,10.48
2023-10-06T04:56:07.276Z,10.48
2023-10-06T04:56:39.944Z,10.48
2023-10-06T04:57:12.458Z,10.49
2023-10-06T04:57:44.989Z,10.49
2023-10-06T04:58:19.179Z,10.49
2023-10-06T04:58:55.087Z,10.49
2023-10-06T04:59:28.680Z,10.50
2023-10-06T05:00:01.232Z,10.50
2023-10-06T05:00:34.554Z,10.50
2023-10-06T05:01:09.046Z,10.51
2023-10-06T05:01:42.194Z,10.52
2023-10-06T05:02:15.516Z,10.53
2023-10-06T05:02:53.856Z,10.54
2023-10-06T05:03:41.957Z,10.56
2023-10-06T05:04:14.735Z,10.57
2023-10-06T05:04:47.305Z,10.59
2023-10-06T05:05:23.000Z,10.59
2023-10-06T05:05:57.872Z,10.60
2023-10-06T05:06:30.529Z,10.61
2023-10-06T05:07:07.400Z,10.63
2023-10-06T05:07:40.344Z,10.64
2023-10-06T05:08:16.142Z,10.65
2023-10-06T05:08:49.628Z,10.66
2023-10-06T05:09:22.523Z,10.67
2023-10-06T05:09:56.908Z,10.68
2023-10-06T05:10:31.567Z,10.69
2023-10-06T05:11:04.085Z,10.71
2023-10-06T05:11:39.714Z,10.72
2023-10-06T05:12:12.373Z,10.74
2023-10-06T05:12:44.842Z,10.75
2023-10-06T05:13:17.680Z,10.76
2023-10-06T05:13:56.796Z,10.77
2023-10-06T05:14:29.380Z,10.78
2023-10-06T05:15:03.150Z,10.79
2023-10-06T05:15:36.140Z,10.80
2023-10-06T05:16:12.689Z,10.81
2023-10-06T05:16:45.825Z,10.82
2023-10-06T05:17:18.465Z,10.84
2023-10-06T05:17:57.078Z,10.85
2023-10-06T05:18:30.640Z,10.86
2023-10-06T05:19:04.888Z,10.87
2023-10-06T05:19:37.403Z,10.88
2023-10-06T05:20:20.612Z,10.90
2023-10-06T05:20:53.415Z,10.92
2023-10-06T05:21:25.951Z,10.93
2023-10-06T05:22:05.108Z,10.94
2023-10-06T05:22:37.662Z,10.95
2023-10-06T05:23:16.243Z,10.97
2023-10-06T05:23:49.049Z,10.98
2023-10-06T05:24:21.616Z,10.98
2023-10-06T05:24:54.403Z,10.99
2023-10-06T05:25:30.763Z,11.00
2023-10-06T05:26:05.486Z,11.02
2023-10-06T05:26:38.009Z,11.03
2023-10-06T05:27:11.245Z,11.04
2023-10-06T05:27:51.905Z,11.05
2023-10-06T05:28:24.491Z,11.06
2023-10-06T05:28:57.177Z,11.08
2023-10-06T05:29:29.703Z,11.09
2023-10-06T05:30:04.097Z,11.10
2023-10-06T05:30:38.248Z,11.11
2023-10-06T05:31:10.846Z,11.12
2023-10-06T05:31:43.486Z,11.13
2023-10-06T05:32:16.117Z,11.14
2023-10-06T05:32:49.405Z,11.15
2023-10-06T05:33:22.748Z,11.16
2023-10-06T05:33:55.316Z,11.17
2023-10-06T05:34:30.446Z,11.18
2023-10-06T05:35:05.573Z,11.19
2023-10-06T05:35:39.843Z,11.20
2023-10-06T05:36:15.837Z,11.22
2023-10-06T05:36:51.588Z,11.23
2023-10-06T05:37:24.124Z,11.24
2023-10-06T05:37:56.995Z,11.25
2023-10-06T05:38:31.880Z,11.26
2023-10-06T05:39:04.593Z,11.27
2023-10-06T05:39:37.216Z,11.28
2023-10-06T05:40:13.886Z,11.29
2023-10-06T05:40:48.210Z,11.31
2023-10-06T05:41:20.841Z,11.32
2023-10-06T05:41:53.355Z,11.33
2023-10-06T05:42:28.247Z,11.34
2023-10-06T05:43:02.055Z,11.35
2023-10-06T05:43:34.638Z,11.36
2023-10-06T05:44:09.916Z,11.38
2023-10-06T05:44:45.189Z,11.39
2023-10-06T05:45:22.135Z,11.40
2023-10-06T05:45:56.777Z,11.41
2023-10-06T05:46:29.355Z,11.42
2023-10-06T05:47:09.449Z,11.43
2023-10-06T05:47:44.986Z,11.44
2023-10-06T05:48:19.833Z,11.45
2023-10-06T05:48:55.275Z,11.47
2023-10-06T05:49:32.976Z,11.48
2023-10-06T05:50:09.983Z,11.49
2023-10-06T05:50:44.529Z,11.50
2023-10-06T05:51:22.547Z,11.51
2023-10-06T05:51:57.529Z,11.52
2023-10-06T05:52:48.308Z,11.53
2023-10-06T05:53:40.480Z,11.55
2023-10-06T05:54:23.019Z,11.56
2023-10-06T05:55:09.704Z,11.57
2023-10-06T05:55:42.861Z,11.58
2023-10-06T05:56:21.139Z,11.59
2023-10-06T05:56:54.718Z,11.60
2023-10-06T05:57:28.073Z,11.61
2023-10-06T05:58:01.765Z,11.62
2023-10-06T05:58:35.933Z,11.62
2023-10-06T05:59:08.722Z,11.63
2023-10-06T05:59:41.362Z,11.63
2023-10-06T06:00:19.801Z,11.63
2023-10-06T06:00:52.661Z,11.64
2023-10-06T06:01:30.352Z,11.65
2023-10-06T06:02:03.517Z,11.66
2023-10-06T06:02:38.759Z,11.67
2023-10-06T06:03:11.768Z,11.68
2023-10-06T06:03:47.390Z,11.69
2023-10-06T06:04:28.772Z,11.70
2023-10-06T06:05:01.822Z,11.71
2023-10-06T06:05:36.617Z,11.72
2023-10-06T06:06:10.880Z,11.73
2023-10-06T06:06:43.564Z,11.74
2023-10-06T06:07:19.329Z,11.75
2023-10-06T06:07:53.160Z,11.76
2023-10-06T06:08:25.678Z,11.77
2023-10-06T06:08:58.186Z,11.78
2023-10-06T06:09:34.938Z,11.78
2023-10-06T06:10:14.387Z,11.79
2023-10-06T06:10:46.978Z,11.82
2023-10-06T06:11:19.584Z,11.83
2023-10-06T06:11:52.819Z,11.84
2023-10-06T06:12:25.348Z,11.85
2023-10-06T06:13:00.965Z,11.86
2023-10-06T06:13:35.465Z,11.88
2023-10-06T06:14:17.439Z,11.88
2023-10-06T06:14:50.566Z,11.90
2023-10-06T06:15:23.503Z,11.91
2023-10-06T06:15:56.144Z,11.93
2023-10-06T06:16:29.225Z,11.94
2023-10-06T06:17:03.491Z,11.94
2023-10-06T06:17:37.347Z,11.95
2023-10-06T06:18:15.142Z,11.97
2023-10-06T06:18:49.764Z,11.98
2023-10-06T06:19:22.636Z,11.99
2023-10-06T06:20:04.759Z,12.00
2023-10-06T06:20:45.511Z,12.01
2023-10-06T06:21:18.101Z,12.02
2023-10-06T06:21:50.642Z,12.03
2023-10-06T06:22:23.226Z,12.05
2023-10-06T06:23:03.621Z,12.06
2023-10-06T06:23:36.484Z,12.08
2023-10-06T06:24:09.593Z,12.09
2023-10-06T06:24:42.140Z,12.10
2023-10-06T06:25:15.402Z,12.11
2023-10-06T06:25:48.156Z,12.12
2023-10-06T06:26:20.720Z,12.13
2023-10-06T06:26:53.239Z,12.14
2023-10-06T06:27:26.101Z,12.15
2023-10-06T06:28:00.574Z,12.16
2023-10-06T06:28:33.168Z,12.17
2023-10-06T06:29:07.295Z,12.18
2023-10-06T06:29:40.194Z,12.19
2023-10-06T06:30:13.154Z,12.20
2023-10-06T06:30:48.454Z,12.22
2023-10-06T06:31:21.531Z,12.23
2023-10-06T06:31:57.297Z,12.24
2023-10-06T06:32:30.436Z,12.26
2023-10-06T06:33:05.494Z,12.27
2023-10-06T06:33:38.170Z,12.28
2023-10-06T06:34:10.965Z,12.29
2023-10-06T06:34:43.522Z,12.31
2023-10-06T06:35:20.335Z,12.32
2023-10-06T06:35:54.368Z,12.34
2023-10-06T06:36:28.185Z,12.36
2023-10-06T06:37:01.784Z,12.38
2023-10-06T06:37:34.981Z,12.40
2023-10-06T06:38:07.518Z,12.42
2023-10-06T06:38:40.887Z,12.44
2023-10-06T06:39:13.405Z,12.46
2023-10-06T06:39:45.930Z,12.48
2023-10-06T06:40:22.016Z,12.51
2023-10-06T06:40:55.009Z,12.55
2023-10-06T06:41:28.124Z,12.60
2023-10-06T06:42:00.836Z,12.64
2023-10-06T06:42:44.953Z,12.69
2023-10-06T06:43:21.333Z,12.76
2023-10-06T06:43:59.844Z,12.82
2023-10-06T06:44:33.851Z,12.90
2023-10-06T06:45:07.577Z,12.95
2023-10-06T06:45:43.300Z,13.00
2023-10-06T06:46:18.232Z,13.06
2023-10-06T06:46:51.029Z,13.12
2023-10-06T06:47:26.597Z,13.17
2023-10-06T06:48:04.305Z,13.23
2023-10-06T06:48:39.513Z,13.29
2023-10-06T06:49:17.280Z,13.35
2023-10-06T06:53:49.955Z,13.72
2023-10-06T06:54:22.511Z,13.76
2023-10-06T06:54:56.659Z,13.81
2023-10-06T06:55:29.192Z,13.85
2023-10-06T06:56:01.727Z,13.90
2023-10-06T06:56:34.337Z,13.94
2023-10-06T06:57:08.767Z,13.99
2023-10-06T06:57:45.813Z,14.03
2023-10-06T06:58:18.340Z,14.07
2023-10-06T06:58:53.094Z,14.11
2023-10-06T06:59:26.957Z,14.15
2023-10-06T06:59:59.649Z,14.19
2023-10-06T07:00:32.438Z,14.23
2023-10-06T07:01:08.653Z,14.27
2023-10-06T07:01:41.238Z,14.31
2023-10-06T07:02:13.867Z,14.35
2023-10-06T07:02:52.009Z,14.38
2023-10-06T07:03:25.365Z,14.43
2023-10-06T07:04:02.934Z,14.47
2023-10-06T07:04:38.125Z,14.51
2023-10-06T07:05:12.280Z,14.56
2023-10-06T07:05:45.947Z,14.60
2023-10-06T07:06:18.694Z,14.64
2023-10-06T07:06:54.036Z,14.67
2023-10-06T07:07:26.596Z,14.70
2023-10-06T07:08:01.838Z,14.74
2023-10-06T07:08:34.482Z,14.78
2023-10-06T07:09:15.147Z,14.81
2023-10-06T07:09:48.063Z,14.85
2023-10-06T07:10:24.046Z,14.89
2023-10-06T07:10:57.455Z,14.92
2023-10-06T07:11:30.120Z,14.95
2023-10-06T07:12:02.708Z,14.98
2023-10-06T07:12:37.701Z,14.99
2023-10-06T07:13:19.101Z,15.02
2023-10-06T07:13:59.653Z,15.05
2023-10-06T07:14:32.273Z,15.09
2023-10-06T07:15:16.673Z,15.11
2023-10-06T07:15:55.025Z,15.14
2023-10-06T07:33:35.360Z,16.13
2023-10-06T07:34:10.892Z,16.21
2023-10-06T07:34:43.771Z,16.34
2023-10-06T07:35:19.079Z,16.51
2023-10-06T07:35:55.103Z,16.71
2023-10-06T07:36:28.142Z,16.90
2023-10-06T07:37:00.736Z,17.14
2023-10-06T07:37:33.276Z,17.35
2023-10-06T07:38:05.971Z,17.59
2023-10-06T07:38:38.769Z,17.89
2023-10-06T07:39:21.674Z,18.21
2023-10-06T07:39:54.335Z,18.58
2023-10-06T07:40:29.197Z,18.76
2023-10-06T07:41:06.569Z,18.96
2023-10-06T07:41:55.933Z,19.16
2023-10-06T07:42:28.718Z,19.42
2023-10-06T07:43:03.905Z,19.63
2023-10-06T07:43:36.697Z,19.88
2023-10-06T07:44:12.862Z,20.13
2023-10-06T07:44:54.380Z,20.42
2023-10-06T07:46:37.074Z,21.20
2023-10-06T07:47:41.254Z,21.57
2023-10-06T07:48:29.355Z,21.89
2023-10-06T07:49:42.957Z,22.22
2023-10-06T07:50:20.272Z,22.25
2023-10-06T07:50:56.990Z,22.26
2023-10-06T07:51:42.427Z,22.29
2023-10-06T07:52:30.787Z,22.38
2023-10-06T07:53:10.213Z,22.61
2023-10-06T07:53:47.719Z,22.87
2023-10-06T07:54:34.402Z,23.05
2023-10-06T07:55:42.860Z,23.21
2023-10-06T07:56:54.703Z,23.48
2023-10-06T07:57:35.550Z,23.87
2023-10-06T07:58:20.344Z,24.03
2023-10-06T07:58:55.406Z,24.30
2023-10-06T08:01:37.381Z,24.92
2023-10-06T08:02:22.854Z,25.04
2023-10-06T08:03:05.683Z,25.16
2023-10-06T08:03:42.958Z,25.26
2023-10-06T08:04:15.643Z,25.35
2023-10-06T08:04:54.531Z,25.45
2023-10-06T08:05:31.488Z,25.60
2023-10-06T08:06:15.408Z,25.71
2023-10-06T08:06:48.119Z,25.79
2023-10-06T08:07:27.656Z,25.82
2023-10-06T08:08:05.475Z,25.89
2023-10-06T08:08:42.315Z,26.04
2023-10-06T08:09:14.874Z,26.15
2023-10-06T08:09:49.471Z,26.19
2023-10-06T08:12:17.158Z,26.25
2023-10-06T08:14:26.297Z,26.59
2023-10-06T08:16:21.621Z,26.95
2023-10-06T08:17:02.752Z,27.04
2023-10-06T08:18:18.457Z,27.16
2023-10-06T08:18:54.967Z,27.41
2023-10-06T08:20:06.765Z,27.50
2023-10-06T08:20:42.511Z,27.77
2023-10-06T08:21:25.927Z,27.94
2023-10-06T08:22:14.929Z,28.19
2023-10-06T08:23:16.989Z,28.33
2023-10-06T08:23:55.829Z,28.50
2023-10-06T08:24:48.273Z,28.62
2023-10-06T08:27:37.047Z,29.26
2023-10-06T08:28:12.398Z,29.33
2023-10-06T08:30:05.682Z,29.60
2023-10-06T08:30:38.875Z,29.86
2023-10-06T08:31:20.382Z,30.02
2023-10-06T08:31:55.005Z,30.13
2023-10-06T08:32:30.818Z,30.18
2023-10-06T08:33:04.183Z,30.21
2023-10-06T08:33:39.672Z,30.25
2023-10-06T08:34:13.181Z,30.30
2023-10-06T08:34:47.726Z,30.37
2023-10-06T08:36:24.127Z,30.55
2023-10-06T08:39:12.040Z,30.85
2023-10-06T08:40:31.998Z,31.00
2023-10-06T08:48:34.289Z,31.41
2023-10-06T08:49:08.281Z,31.45
2023-10-06T08:49:47.803Z,31.49
2023-10-06T08:50:24.997Z,31.53
2023-10-06T08:50:59.912Z,31.56
2023-10-06T08:51:34.146Z,31.58
2023-10-06T08:52:10.664Z,31.60
2023-10-06T08:52:47.192Z,31.64
2023-10-06T08:53:21.661Z,31.67
2023-10-06T08:53:57.319Z,31.69
2023-10-06T08:54:32.181Z,31.71
2023-10-06T08:55:07.733Z,31.72
2023-10-06T08:55:40.369Z,31.73
2023-10-06T08:56:16.537Z,31.74
2023-10-06T08:56:58.170Z,31.75
2023-10-06T08:57:34.697Z,31.76
2023-10-06T08:58:08.914Z,31.77
2023-10-06T08:58:43.004Z,31.78
2023-10-06T08:59:18.181Z,31.79
2023-10-06T08:59:50.800Z,31.80
2023-10-06T09:00:27.836Z,31.80
2023-10-06T09:01:01.179Z,31.80
2023-10-06T09:01:36.748Z,31.80
2023-10-06T09:02:11.550Z,31.79
2023-10-06T09:02:49.333Z,31.78
2023-10-06T09:04:11.135Z,31.77
2023-10-06T09:04:44.288Z,31.81
2023-10-06T09:05:17.025Z,31.84
2023-10-06T09:05:52.924Z,31.86
2023-10-06T09:06:27.059Z,31.90
2023-10-06T09:07:09.401Z,31.92
2023-10-06T09:08:01.185Z,31.95
2023-10-06T09:08:41.692Z,31.98
2023-10-06T09:10:24.364Z,32.10
2023-10-06T09:10:58.214Z,32.12
2023-10-06T09:15:05.377Z,32.26
2023-10-06T09:24:25.255Z,32.49
2023-10-06T09:28:33.497Z,32.67
2023-10-06T09:29:06.234Z,32.72
2023-10-06T09:29:50.419Z,32.76
2023-10-06T09:30:22.917Z,32.79
2023-10-06T09:31:03.259Z,32.80
2023-10-06T09:31:40.401Z,32.82
2023-10-06T09:32:23.416Z,32.84
2023-10-06T09:33:06.085Z,32.89
2023-10-06T09:33:39.216Z,32.98
2023-10-06T09:34:13.588Z,33.01
2023-10-06T09:34:46.427Z,33.04
2023-10-06T09:35:23.366Z,33.07
2023-10-06T09:36:02.947Z,33.14
2023-10-06T09:36:44.292Z,33.17
2023-10-06T09:37:20.220Z,33.21
2023-10-06T09:37:52.862Z,33.24
2023-10-06T09:38:27.964Z,33.26
2023-10-06T09:39:01.911Z,33.28
2023-10-06T09:39:34.749Z,33.30
2023-10-06T09:40:23.352Z,33.33
2023-10-06T09:40:55.956Z,33.36
2023-10-06T09:41:33.872Z,33.38
2023-10-06T09:42:11.390Z,33.38
2023-10-06T09:42:48.837Z,33.39
2023-10-06T09:43:23.882Z,33.41
2023-10-06T09:44:10.961Z,33.44
2023-10-06T09:44:47.474Z,33.45
2023-10-06T09:45:22.811Z,33.47
2023-10-06T09:45:57.819Z,33.48
2023-10-06T09:46:37.818Z,33.49
2023-10-06T09:47:12.743Z,33.51
2023-10-06T09:47:56.672Z,33.54
2023-10-06T09:48:37.698Z,33.57
2023-10-06T09:49:16.563Z,33.60
2023-10-06T09:49:53.289Z,33.61
2023-10-06T09:50:28.709Z,33.62
2023-10-06T09:51:07.358Z,33.63
2023-10-06T09:51:44.643Z,33.63
2023-10-06T09:52:29.745Z,33.63
2023-10-06T09:53:06.671Z,33.63
2023-10-06T09:53:40.794Z,33.65
2023-10-06T09:54:14.062Z,33.66
2023-10-06T09:54:47.454Z,33.66
2023-10-06T09:55:22.321Z,33.63
2023-10-06T09:55:59.060Z,33.63
2023-10-06T09:56:40.398Z,33.63
2023-10-06T09:57:13.323Z,33.60
2023-10-06T09:57:50.492Z,33.61
2023-10-06T09:58:23.799Z,33.62
2023-10-06T09:58:57.177Z,33.62
2023-10-06T09:59:34.114Z,33.61
2023-10-06T10:00:16.808Z,33.60
2023-10-06T10:00:50.874Z,33.61
2023-10-06T10:01:27.363Z,33.63
2023-10-06T10:02:09.192Z,33.65
2023-10-06T10:02:46.151Z,33.64
2023-10-06T10:03:19.805Z,33.64
2023-10-06T10:04:00.385Z,33.64
2023-10-06T10:04:34.449Z,33.60
2023-10-06T10:05:12.327Z,33.56
2023-10-06T10:05:49.913Z,33.54
2023-10-06T10:06:26.819Z,33.51
2023-10-06T10:07:04.239Z,33.45
2023-10-06T10:07:37.260Z,33.37
2023-10-06T10:08:09.831Z,33.32
2023-10-06T10:08:43.910Z,33.28
2023-10-06T10:09:18.427Z,33.24
2023-10-06T10:09:54.177Z,33.16
2023-10-06T10:10:28.837Z,33.04
2023-10-06T10:11:09.727Z,32.94
2023-10-06T10:11:48.924Z,32.86
2023-10-06T10:12:39.722Z,32.79
2023-10-06T10:13:45.186Z,32.60
2023-10-06T10:14:55.783Z,32.44
2023-10-06T10:15:39.432Z,32.24
2023-10-06T10:16:46.371Z,32.11
2023-10-06T10:17:39.169Z,31.92
2023-10-06T10:18:36.697Z,31.65
2023-10-06T10:19:13.466Z,31.14
2023-10-06T10:20:09.048Z,30.89
2023-10-06T10:20:42.028Z,30.67
2023-10-06T10:21:16.882Z,30.52
2023-10-06T10:21:50.836Z,30.17
2023-10-06T10:22:27.562Z,29.80
2023-10-06T10:23:02.556Z,29.54
2023-10-06T10:23:35.245Z,29.37
2023-10-06T10:24:53.202Z,29.13
2023-10-06T10:25:26.795Z,28.79
2023-10-06T10:26:23.372Z,28.68
2023-10-06T10:26:56.006Z,28.56
2023-10-06T10:27:28.672Z,28.50
2023-10-06T10:28:20.829Z,28.44
2023-10-06T10:29:28.564Z,28.12
2023-10-06T10:30:14.134Z,27.91
2023-10-06T10:30:55.200Z,27.81
2023-10-06T10:31:28.029Z,27.72
2023-10-06T10:32:10.971Z,27.65
2023-10-06T10:32:44.346Z,27.52
2023-10-06T10:33:25.275Z,27.39
2023-10-06T10:34:05.303Z,27.28
2023-10-06T10:35:14.214Z,27.20
2023-10-06T10:36:15.947Z,27.11
2023-10-06T10:37:05.856Z,26.94
2023-10-06T10:37:56.957Z,26.83
2023-10-06T10:38:33.140Z,26.73
2023-10-06T10:39:41.063Z,26.64
2023-10-06T10:40:17.414Z,26.50
2023-10-06T10:40:50.184Z,26.42
2023-10-06T10:41:27.317Z,26.34
2023-10-06T10:42:00.160Z,26.26
2023-10-06T10:42:40.404Z,26.16
2023-10-06T10:43:14.324Z,26.06
2023-10-06T10:43:50.465Z,25.97
2023-10-06T10:45:38.202Z,25.77
2023-10-06T10:46:10.865Z,25.72
2023-10-06T10:46:49.890Z,25.68
2023-10-06T10:47:25.176Z,25.62
2023-10-06T10:48:00.305Z,25.55
2023-10-06T10:48:38.549Z,25.45
2023-10-06T10:49:12.328Z,25.31
2023-10-06T10:49:48.108Z,25.22
2023-10-06T10:50:21.235Z,25.16
2023-10-06T10:51:11.909Z,25.13
2023-10-06T10:52:02.099Z,25.02
2023-10-06T10:52:35.818Z,24.92
2023-10-06T10:53:08.322Z,24.87
2023-10-06T10:53:44.959Z,24.84
2023-10-06T10:54:24.052Z,24.80
2023-10-06T10:54:57.394Z,24.75
2023-10-06T10:55:32.620Z,24.72
2023-10-06T10:56:08.456Z,24.68
2023-10-06T10:56:44.351Z,24.64
2023-10-06T10:57:22.614Z,24.59
2023-10-06T10:57:55.168Z,24.56
2023-10-06T10:58:45.831Z,24.54
2023-10-06T10:59:22.881Z,24.52
2023-10-06T11:00:10.404Z,24.50
2023-10-06T11:01:22.041Z,24.45
2023-10-06T11:01:55.195Z,24.40
2023-10-06T11:02:43.720Z,24.37
2023-10-06T11:03:17.388Z,24.33
2023-10-06T11:04:14.339Z,24.31
2023-10-06T11:04:47.190Z,24.30
2023-10-06T11:05:21.805Z,24.29
2023-10-06T11:05:58.148Z,24.27
2023-10-06T11:06:31.644Z,24.25
2023-10-06T11:07:17.455Z,24.22
2023-10-06T11:07:55.804Z,24.20
2023-10-06T11:08:39.776Z,24.19
2023-10-06T11:09:13.690Z,24.17
2023-10-06T11:09:48.985Z,24.16
2023-10-06T11:10:24.115Z,24.15
2023-10-06T11:11:01.780Z,24.14
2023-10-06T11:11:35.335Z,24.13
2023-10-06T11:12:27.317Z,24.11
2023-10-06T11:13:48.339Z,24.09
2023-10-06T11:14:31.993Z,24.04
2023-10-06T11:15:14.997Z,24.03
2023-10-06T11:15:50.480Z,24.02
2023-10-06T11:16:24.612Z,24.01
2023-10-06T11:17:06.824Z,24.01
2023-10-06T11:17:39.709Z,24.00
2023-10-06T11:18:14.492Z,23.99
2023-10-06T11:18:47.162Z,23.98
2023-10-06T11:19:21.017Z,23.97
2023-10-06T11:20:23.939Z,23.96
2023-10-06T11:20:56.737Z,23.93
2023-10-06T11:21:29.405Z,23.91
2023-10-06T11:22:26.210Z,23.89
2023-10-06T11:23:01.735Z,23.87
2023-10-06T11:23:45.130Z,23.85
2023-10-06T11:24:27.531Z,23.82
2023-10-06T11:25:04.382Z,23.79
2023-10-06T11:25:40.179Z,23.76
2023-10-06T11:26:13.548Z,23.75
2023-10-06T11:26:46.149Z,23.74
2023-10-06T11:27:24.553Z,23.71
2023-10-06T11:28:05.535Z,23.68
2023-10-06T11:28:42.929Z,23.66
2023-10-06T11:29:28.706Z,23.64
2023-10-06T11:30:09.669Z,23.62
2023-10-06T11:30:44.001Z,23.61
2023-10-06T11:31:19.902Z,23.60
2023-10-06T11:31:52.476Z,23.58
2023-10-06T11:32:27.423Z,23.57
2023-10-06T11:33:03.252Z,23.56
2023-10-06T11:33:37.458Z,23.55
2023-10-06T11:34:10.525Z,23.54
2023-10-06T11:34:45.067Z,23.53
2023-10-06T11:35:18.864Z,23.51
2023-10-06T11:35:55.241Z,23.49
2023-10-06T11:36:28.234Z,23.47
2023-10-06T11:37:00.825Z,23.47
2023-10-06T11:37:33.590Z,23.47
2023-10-06T11:38:08.217Z,23.47
2023-10-06T11:38:41.413Z,23.46
2023-10-06T11:39:13.906Z,23.45
2023-10-06T11:39:47.222Z,23.44
2023-10-06T11:40:22.881Z,23.43
2023-10-06T11:40:58.363Z,23.43
2023-10-06T11:41:31.247Z,23.42
2023-10-06T11:42:26.174Z,23.41
2023-10-06T11:43:16.383Z,23.38
2023-10-06T11:43:56.183Z,23.36
2023-10-06T11:44:38.973Z,23.35
2023-10-06T11:45:33.685Z,23.34
2023-10-06T11:46:08.906Z,23.33
2023-10-06T11:46:57.657Z,23.33
2023-10-06T11:47:30.339Z,23.32
2023-10-06T11:48:03.092Z,23.31
2023-10-06T11:48:36.122Z,23.31
2023-10-06T11:49:11.260Z,23.31
2023-10-06T11:49:56.349Z,23.30
2023-10-06T11:50:33.783Z,23.29
2023-10-06T11:51:08.850Z,23.29
2023-10-06T11:51:41.837Z,23.28
2023-10-06T11:52:14.564Z,23.28
2023-10-06T11:52:47.092Z,23.28
2023-10-06T11:53:22.620Z,23.28
2023-10-06T11:54:00.270Z,23.28
2023-10-06T11:54:33.431Z,23.28
2023-10-06T11:55:15.884Z,23.28
2023-10-06T11:55:49.411Z,23.28
2023-10-06T11:56:21.984Z,23.28
2023-10-06T11:56:58.071Z,23.29
2023-10-06T11:57:52.777Z,23.29
2023-10-06T11:58:32.746Z,23.30
2023-10-06T11:59:05.288Z,23.30
2023-10-06T11:59:37.833Z,23.30
2023-10-06T12:00:11.744Z,23.31
2023-10-06T12:00:44.494Z,23.31
2023-10-06T12:01:35.108Z,23.31
2023-10-06T12:02:10.879Z,23.32
2023-10-06T12:02:46.683Z,23.32
2023-10-06T12:03:40.922Z,23.32
2023-10-06T12:04:31.701Z,23.33
2023-10-06T12:05:11.177Z,23.37
2023-10-06T12:05:56.840Z,23.40
2023-10-06T12:06:39.799Z,23.45
2023-10-06T12:07:25.174Z,23.52
2023-10-06T12:08:07.404Z,23.60
2023-10-06T12:08:46.105Z,23.69
2023-10-06T12:09:26.514Z,23.79
2023-10-06T12:10:03.928Z,23.92
2023-10-06T12:10:51.827Z,24.06
2023-10-06T12:11:25.787Z,24.21
2023-10-06T12:12:01.181Z,24.32
2023-10-06T12:12:33.654Z,24.42
2023-10-06T12:13:06.664Z,24.48
2023-10-06T12:13:40.445Z,24.53
2023-10-06T12:14:13.376Z,24.57
2023-10-06T12:14:46.491Z,24.60
2023-10-06T12:15:20.138Z,24.64
2023-10-06T12:15:52.730Z,24.66
2023-10-06T12:16:27.881Z,24.68
2023-10-06T12:17:01.568Z,24.69
2023-10-06T12:17:39.756Z,24.70
2023-10-06T12:18:13.876Z,24.72
2023-10-06T12:18:47.509Z,24.72
2023-10-06T12:19:20.056Z,24.73
2023-10-06T12:19:53.867Z,24.72
2023-10-06T12:20:26.445Z,24.72
2023-10-06T12:20:58.987Z,24.71
2023-10-06T12:21:31.713Z,24.71
2023-10-06T12:22:04.227Z,24.71
2023-10-06T12:22:41.510Z,24.70
2023-10-06T12:23:14.162Z,24.68
2023-10-06T12:23:48.186Z,24.65
2023-10-06T12:24:23.646Z,24.63
2023-10-06T12:24:56.480Z,24.61
2023-10-06T12:25:30.652Z,24.60
2023-10-06T12:26:04.242Z,24.58
2023-10-06T12:26:36.851Z,24.56
2023-10-06T12:27:10.786Z,24.54
2023-10-06T12:27:45.149Z,24.52
2023-10-06T12:28:17.999Z,24.49
2023-10-06T12:28:54.972Z,24.45
2023-10-06T12:29:30.179Z,24.42
2023-10-06T12:30:08.123Z,24.39
2023-10-06T12:30:40.773Z,24.37
2023-10-06T12:31:13.389Z,24.35
2023-10-06T12:31:47.379Z,24.33
2023-10-06T12:32:19.952Z,24.31
2023-10-06T12:32:53.126Z,24.29
2023-10-06T12:33:25.782Z,24.27
2023-10-06T12:33:58.541Z,24.25
2023-10-06T12:34:31.053Z,24.24
2023-10-06T12:35:06.976Z,24.22
2023-10-06T12:35:41.083Z,24.18
2023-10-06T12:36:13.826Z,24.15
2023-10-06T12:36:48.987Z,24.12
2023-10-06T12:37:21.492Z,24.09
2023-10-06T12:37:55.265Z,24.06
2023-10-06T12:38:31.409Z,24.03
2023-10-06T12:39:06.251Z,24.00
2023-10-06T12:39:38.776Z,23.97
2023-10-06T12:40:14.854Z,23.94
2023-10-06T12:40:48.245Z,23.91
2023-10-06T12:41:21.439Z,23.88
2023-10-06T12:41:56.665Z,23.84
2023-10-06T12:42:33.040Z,23.81
2023-10-06T12:43:05.569Z,23.78
2023-10-06T12:43:38.131Z,23.75
2023-10-06T12:44:10.820Z,23.73
2023-10-06T12:44:44.138Z,23.71
2023-10-06T12:45:19.934Z,23.68
2023-10-06T12:45:52.794Z,23.65
2023-10-06T12:46:25.324Z,23.61
2023-10-06T12:47:05.215Z,23.57
2023-10-06T12:47:40.000Z,23.52
2023-10-06T12:48:12.672Z,23.49
2023-10-06T12:48:47.668Z,23.47
2023-10-06T12:49:20.849Z,23.44
2023-10-06T12:49:53.397Z,23.41
2023-10-06T12:50:25.985Z,23.39
2023-10-06T12:50:58.526Z,23.37
2023-10-06T12:51:31.118Z,23.35
2023-10-06T12:52:03.811Z,23.33
2023-10-06T12:52:38.416Z,23.31
2023-10-06T12:53:12.837Z,23.28
2023-10-06T12:53:45.400Z,23.25
2023-10-06T12:54:17.917Z,23.23
2023-10-06T12:54:51.570Z,23.20
2023-10-06T12:55:30.228Z,23.18
2023-10-06T12:56:02.837Z,23.16
2023-10-06T12:56:35.411Z,23.14
2023-10-06T12:57:08.174Z,23.13
2023-10-06T12:57:42.027Z,23.11
2023-10-06T12:58:16.354Z,23.10
2023-10-06T12:58:48.968Z,23.08
2023-10-06T12:59:21.884Z,23.06
2023-10-06T12:59:54.413Z,23.05
2023-10-06T13:00:29.417Z,23.04
2023-10-06T13:01:02.511Z,23.02
2023-10-06T13:01:35.757Z,23.01
2023-10-06T13:02:08.308Z,23.00
2023-10-06T13:02:40.934Z,22.99
2023-10-06T13:03:19.443Z,22.98
2023-10-06T13:03:52.321Z,22.96
2023-10-06T13:04:25.657Z,22.96
2023-10-06T13:04:59.316Z,22.95
2023-10-06T13:05:32.201Z,22.94
2023-10-06T13:06:06.002Z,22.88
2023-10-06T13:06:38.757Z,22.81
2023-10-06T13:07:12.342Z,22.80
2023-10-06T13:07:47.576Z,22.79
2023-10-06T13:08:23.094Z,22.78
2023-10-06T13:08:55.743Z,22.78
2023-10-06T13:09:28.855Z,22.78
2023-10-06T13:10:04.195Z,22.78
2023-10-06T13:10:36.865Z,22.78
2023-10-06T13:11:11.662Z,22.78
2023-10-06T13:11:44.252Z,22.78
2023-10-06T13:12:17.792Z,22.79
2023-10-06T13:12:51.036Z,22.78
2023-10-06T13:13:25.126Z,22.78
2023-10-06T13:13:57.855Z,22.78
2023-10-06T13:14:31.211Z,22.78
2023-10-06T13:15:07.754Z,22.78
2023-10-06T13:15:41.608Z,22.78
2023-10-06T13:16:14.152Z,22.77
2023-10-06T13:16:47.428Z,22.77
2023-10-06T13:17:19.980Z,22.77
2023-10-06T13:17:52.661Z,22.77
2023-10-06T13:18:25.247Z,22.77
2023-10-06T13:18:57.748Z,22.77
2023-10-06T13:19:30.307Z,22.77
2023-10-06T13:20:02.893Z,22.77
2023-10-06T13:20:42.997Z,22.77
2023-10-06T13:21:15.517Z,22.76
2023-10-06T13:21:48.006Z,22.76
2023-10-06T13:22:20.517Z,22.77
2023-10-06T13:22:53.160Z,22.77
2023-10-06T13:23:28.427Z,22.77
2023-10-06T13:24:04.325Z,22.78
2023-10-06T13:24:38.155Z,22.78
2023-10-06T13:25:12.433Z,22.78
2023-10-06T13:25:47.270Z,22.78
2023-10-06T13:26:36.225Z,22.78
2023-10-06T13:27:13.937Z,22.78
2023-10-06T13:27:50.709Z,22.78
2023-10-06T13:28:23.225Z,22.78
2023-10-06T13:28:55.812Z,22.79
2023-10-06T13:29:28.407Z,22.79
2023-10-06T13:30:01.958Z,22.79
2023-10-06T13:30:37.174Z,22.78
2023-10-06T13:31:11.906Z,22.78
2023-10-06T13:31:45.712Z,22.77
2023-10-06T13:32:19.492Z,22.77
2023-10-06T13:32:53.710Z,22.77
2023-10-06T13:33:27.135Z,22.77
2023-10-06T13:34:00.580Z,22.77
2023-10-06T13:34:33.426Z,22.77
2023-10-06T13:35:12.544Z,22.76
2023-10-06T13:35:45.477Z,22.76
2023-10-06T13:36:18.542Z,22.75
2023-10-06T13:36:51.095Z,22.75
2023-10-06T13:37:24.405Z,22.75
2023-10-06T13:37:59.020Z,22.75
2023-10-06T13:38:34.551Z,22.75
2023-10-06T13:39:10.964Z,22.74
2023-10-06T13:39:46.416Z,22.73
2023-10-06T13:40:19.454Z,22.73
2023-10-06T13:40:53.402Z,22.73
2023-10-06T13:41:27.739Z,22.73
2023-10-06T13:42:04.327Z,22.73
2023-10-06T13:42:43.163Z,22.73
2023-10-06T13:43:15.765Z,22.73
2023-10-06T13:43:48.300Z,22.73
2023-10-06T13:44:20.856Z,22.73
2023-10-06T13:44:53.446Z,22.72
2023-10-06T13:45:26.552Z,22.72
2023-10-06T13:46:00.947Z,22.72
2023-10-06T13:46:33.717Z,22.72
2023-10-06T13:47:07.403Z,22.71
2023-10-06T13:47:41.989Z,22.71
2023-10-06T13:48:16.929Z,22.70
2023-10-06T13:48:49.791Z,22.71
2023-10-06T13:49:22.493Z,22.71